sensor_id;sensor_type;location;lat;lon;timestamp;temperature;humidity
68433;DHT22;55412;51.350;17.056;2023-02-28T00:01:22;-0.20;86.10
68433;DHT22;55412;51.350;17.056;2023-02-28T00:03:48;-0.20;87.10
68433;DHT22;55412;51.350;17.056;2023-02-28T00:06:14;-0.30;87.60
68433;DHT22;55412;51.350;17.056;2023-02-28T00:08:41;-0.30;88.00
68433;DHT22;55412;51.350;17.056;2023-02-28T00:11:10;-0.30;87.90
68433;DHT22;55412;51.350;17.056;2023-02-28T00:13:41;-0.20;88.30
68433;DHT22;55412;51.350;17.056;2023-02-28T00:16:13;-0.20;88.60
68433;DHT22;55412;51.350;17.056;2023-02-28T00:18:42;-0.20;89.00
68433;DHT22;55412;51.350;17.056;2023-02-28T00:21:08;-0.30;89.30
68433;DHT22;55412;51.350;17.056;2023-02-28T00:23:35;-0.30;89.60
68433;DHT22;55412;51.350;17.056;2023-02-28T00:26:01;-0.30;89.80
68433;DHT22;55412;51.350;17.056;2023-02-28T00:28:27;-0.20;89.90
68433;DHT22;55412;51.350;17.056;2023-02-28T00:30:53;-0.20;89.70
68433;DHT22;55412;51.350;17.056;2023-02-28T00:33:19;-0.20;89.50
68433;DHT22;55412;51.350;17.056;2023-02-28T00:35:45;-0.20;89.40
68433;DHT22;55412;51.350;17.056;2023-02-28T00:38:13;-0.20;88.80
68433;DHT22;55412;51.350;17.056;2023-02-28T00:40:39;-0.30;88.00
68433;DHT22;55412;51.350;17.056;2023-02-28T00:43:05;-0.30;87.80
68433;DHT22;55412;51.350;17.056;2023-02-28T00:45:31;-0.30;88.00
68433;DHT22;55412;51.350;17.056;2023-02-28T00:47:57;-0.30;87.90
68433;DHT22;55412;51.350;17.056;2023-02-28T00:50:23;-0.20;88.20
68433;DHT22;55412;51.350;17.056;2023-02-28T00:52:49;-0.20;88.30
68433;DHT22;55412;51.350;17.056;2023-02-28T00:55:15;-0.20;88.50
68433;DHT22;55412;51.350;17.056;2023-02-28T00:57:42;-0.20;88.50
68433;DHT22;55412;51.350;17.056;2023-02-28T01:00:08;-0.20;88.40
68433;DHT22;55412;51.350;17.056;2023-02-28T01:02:35;-0.20;87.90
68433;DHT22;55412;51.350;17.056;2023-02-28T01:05:01;-0.20;87.80
68433;DHT22;55412;51.350;17.056;2023-02-28T01:07:27;-0.20;87.60
68433;DHT22;55412;51.350;17.056;2023-02-28T01:09:53;-0.20;88.40
68433;DHT22;55412;51.350;17.056;2023-02-28T01:12:19;-0.20;88.90
68433;DHT22;55412;51.350;17.056;2023-02-28T01:14:45;-0.20;89.00
68433;DHT22;55412;51.350;17.056;2023-02-28T01:17:11;-0.20;89.20
68433;DHT22;55412;51.350;17.056;2023-02-28T01:19:37;-0.30;89.20
68433;DHT22;55412;51.350;17.056;2023-02-28T01:22:04;-0.20;89.40
68433;DHT22;55412;51.350;17.056;2023-02-28T01:24:31;-0.20;89.50
68433;DHT22;55412;51.350;17.056;2023-02-28T01:26:57;-0.20;89.40
68433;DHT22;55412;51.350;17.056;2023-02-28T01:29:23;-0.20;89.40
68433;DHT22;55412;51.350;17.056;2023-02-28T01:31:49;-0.20;89.40
68433;DHT22;55412;51.350;17.056;2023-02-28T01:34:16;-0.20;89.40
68433;DHT22;55412;51.350;17.056;2023-02-28T01:36:44;-0.20;89.60
68433;DHT22;55412;51.350;17.056;2023-02-28T01:39:11;-0.20;89.60
68433;DHT22;55412;51.350;17.056;2023-02-28T01:41:39;-0.20;89.30
68433;DHT22;55412;51.350;17.056;2023-02-28T01:47:11;-0.20;89.50
68433;DHT22;55412;51.350;17.056;2023-02-28T01:49:37;-0.30;89.60
68433;DHT22;55412;51.350;17.056;2023-02-28T01:52:04;-0.20;89.90
68433;DHT22;55412;51.350;17.056;2023-02-28T01:54:31;-0.30;90.50
68433;DHT22;55412;51.350;17.056;2023-02-28T01:57:05;-0.30;90.90
68433;DHT22;55412;51.350;17.056;2023-02-28T02:02:17;-0.40;91.40
68433;DHT22;55412;51.350;17.056;2023-02-28T02:04:55;-0.40;91.60
68433;DHT22;55412;51.350;17.056;2023-02-28T02:07:23;-0.40;91.50
68433;DHT22;55412;51.350;17.056;2023-02-28T02:10:10;-0.40;91.60
68433;DHT22;55412;51.350;17.056;2023-02-28T02:15:45;-0.40;91.10
68433;DHT22;55412;51.350;17.056;2023-02-28T02:18:54;-0.40;91.10
68433;DHT22;55412;51.350;17.056;2023-02-28T02:22:02;-0.50;90.20
68433;DHT22;55412;51.350;17.056;2023-02-28T02:30:35;-0.50;89.60
68433;DHT22;55412;51.350;17.056;2023-02-28T02:39:14;-0.50;89.60
68433;DHT22;55412;51.350;17.056;2023-02-28T02:41:56;-0.60;88.80
68433;DHT22;55412;51.350;17.056;2023-02-28T02:47:08;-0.60;89.90
68433;DHT22;55412;51.350;17.056;2023-02-28T02:49:38;-0.70;90.20
68433;DHT22;55412;51.350;17.056;2023-02-28T02:52:11;-0.70;90.40
68433;DHT22;55412;51.350;17.056;2023-02-28T02:54:43;-0.70;90.50
68433;DHT22;55412;51.350;17.056;2023-02-28T02:57:25;-0.70;89.80
68433;DHT22;55412;51.350;17.056;2023-02-28T03:00:00;-0.70;90.20
68433;DHT22;55412;51.350;17.056;2023-02-28T03:02:34;-0.80;90.40
68433;DHT22;55412;51.350;17.056;2023-02-28T03:05:06;-0.70;90.60
68433;DHT22;55412;51.350;17.056;2023-02-28T03:07:37;-0.70;90.50
68433;DHT22;55412;51.350;17.056;2023-02-28T03:10:25;-0.70;90.40
68433;DHT22;55412;51.350;17.056;2023-02-28T03:13:07;-0.70;90.20
68433;DHT22;55412;51.350;17.056;2023-02-28T03:25:14;-0.80;91.00
68433;DHT22;55412;51.350;17.056;2023-02-28T03:31:01;-0.80;91.50
68433;DHT22;55412;51.350;17.056;2023-02-28T03:34:13;-0.80;91.10
68433;DHT22;55412;51.350;17.056;2023-02-28T03:37:03;-0.80;91.50
68433;DHT22;55412;51.350;17.056;2023-02-28T03:42:42;-0.80;91.60
68433;DHT22;55412;51.350;17.056;2023-02-28T03:45:19;-0.70;91.70
68433;DHT22;55412;51.350;17.056;2023-02-28T03:47:53;-0.80;91.70
68433;DHT22;55412;51.350;17.056;2023-02-28T03:50:30;-0.80;91.70
68433;DHT22;55412;51.350;17.056;2023-02-28T03:53:42;-0.80;91.70
68433;DHT22;55412;51.350;17.056;2023-02-28T03:56:18;-0.80;91.60
68433;DHT22;55412;51.350;17.056;2023-02-28T04:01:49;-0.70;92.10
68433;DHT22;55412;51.350;17.056;2023-02-28T04:04:17;-0.70;91.90
68433;DHT22;55412;51.350;17.056;2023-02-28T04:06:44;-0.70;92.10
68433;DHT22;55412;51.350;17.056;2023-02-28T04:09:12;-0.70;92.20
68433;DHT22;55412;51.350;17.056;2023-02-28T04:11:46;-0.60;92.50
68433;DHT22;55412;51.350;17.056;2023-02-28T04:14:17;-0.60;92.50
68433;DHT22;55412;51.350;17.056;2023-02-28T04:16:44;-0.70;92.30
68433;DHT22;55412;51.350;17.056;2023-02-28T04:19:12;-0.70;92.30
68433;DHT22;55412;51.350;17.056;2023-02-28T04:21:41;-0.60;92.30
68433;DHT22;55412;51.350;17.056;2023-02-28T04:24:14;-0.60;92.40
68433;DHT22;55412;51.350;17.056;2023-02-28T04:26:46;-0.60;92.40
68433;DHT22;55412;51.350;17.056;2023-02-28T04:29:23;-0.60;92.60
68433;DHT22;55412;51.350;17.056;2023-02-28T04:31:50;-0.60;92.60
68433;DHT22;55412;51.350;17.056;2023-02-28T04:34:19;-0.60;92.50
68433;DHT22;55412;51.350;17.056;2023-02-28T04:36:47;-0.60;92.50
68433;DHT22;55412;51.350;17.056;2023-02-28T04:39:17;-0.50;92.40
68433;DHT22;55412;51.350;17.056;2023-02-28T04:41:44;-0.60;92.20
68433;DHT22;55412;51.350;17.056;2023-02-28T04:44:11;-0.60;92.20
68433;DHT22;55412;51.350;17.056;2023-02-28T04:46:37;-0.60;92.20
68433;DHT22;55412;51.350;17.056;2023-02-28T04:49:03;-0.60;92.30
68433;DHT22;55412;51.350;17.056;2023-02-28T04:51:29;-0.60;92.30
68433;DHT22;55412;51.350;17.056;2023-02-28T04:53:55;-0.60;92.30
68433;DHT22;55412;51.350;17.056;2023-02-28T04:56:22;-0.60;92.40
68433;DHT22;55412;51.350;17.056;2023-02-28T04:58:48;-0.60;92.60
68433;DHT22;55412;51.350;17.056;2023-02-28T05:01:26;-0.60;92.70
68433;DHT22;55412;51.350;17.056;2023-02-28T05:03:58;-0.60;92.70
68433;DHT22;55412;51.350;17.056;2023-02-28T05:06:27;-0.60;92.60
68433;DHT22;55412;51.350;17.056;2023-02-28T05:08:54;-0.60;92.80
68433;DHT22;55412;51.350;17.056;2023-02-28T05:13:55;-0.60;92.80
68433;DHT22;55412;51.350;17.056;2023-02-28T05:16:21;-0.60;92.70
68433;DHT22;55412;51.350;17.056;2023-02-28T05:18:47;-0.60;92.60
68433;DHT22;55412;51.350;17.056;2023-02-28T05:21:28;-0.70;92.60
68433;DHT22;55412;51.350;17.056;2023-02-28T05:23:55;-0.70;92.60
68433;DHT22;55412;51.350;17.056;2023-02-28T05:26:23;-0.70;92.50
68433;DHT22;55412;51.350;17.056;2023-02-28T05:28:49;-0.80;92.30
68433;DHT22;55412;51.350;17.056;2023-02-28T05:31:15;-0.90;92.20
68433;DHT22;55412;51.350;17.056;2023-02-28T05:33:41;-0.90;92.20
68433;DHT22;55412;51.350;17.056;2023-02-28T05:36:08;-1.00;92.10
68433;DHT22;55412;51.350;17.056;2023-02-28T05:38:34;-1.10;92.20
68433;DHT22;55412;51.350;17.056;2023-02-28T05:41:04;-1.20;92.30
68433;DHT22;55412;51.350;17.056;2023-02-28T05:43:31;-1.30;92.50
68433;DHT22;55412;51.350;17.056;2023-02-28T05:45:57;-1.40;92.50
68433;DHT22;55412;51.350;17.056;2023-02-28T05:48:23;-1.50;92.40
68433;DHT22;55412;51.350;17.056;2023-02-28T05:50:49;-1.50;92.60
68433;DHT22;55412;51.350;17.056;2023-02-28T05:53:15;-1.60;93.00
68433;DHT22;55412;51.350;17.056;2023-02-28T05:55:41;-1.60;93.20
68433;DHT22;55412;51.350;17.056;2023-02-28T05:58:07;-1.60;93.20
68433;DHT22;55412;51.350;17.056;2023-02-28T06:00:33;-1.60;93.30
68433;DHT22;55412;51.350;17.056;2023-02-28T06:02:59;-1.60;93.40
68433;DHT22;55412;51.350;17.056;2023-02-28T06:05:27;-1.50;93.80
68433;DHT22;55412;51.350;17.056;2023-02-28T06:07:53;-1.50;94.20
68433;DHT22;55412;51.350;17.056;2023-02-28T06:10:19;-1.40;94.60
68433;DHT22;55412;51.350;17.056;2023-02-28T06:12:45;-1.20;94.80
68433;DHT22;55412;51.350;17.056;2023-02-28T06:15:16;-1.10;94.80
68433;DHT22;55412;51.350;17.056;2023-02-28T06:17:43;-0.90;94.70
68433;DHT22;55412;51.350;17.056;2023-02-28T06:20:11;-0.80;94.40
68433;DHT22;55412;51.350;17.056;2023-02-28T06:22:40;-0.50;94.00
68433;DHT22;55412;51.350;17.056;2023-02-28T06:25:07;-0.30;94.10
68433;DHT22;55412;51.350;17.056;2023-02-28T06:27:34;0.00;94.00
68433;DHT22;55412;51.350;17.056;2023-02-28T06:30:00;0.30;93.10
68433;DHT22;55412;51.350;17.056;2023-02-28T06:32:26;0.50;91.50
68433;DHT22;55412;51.350;17.056;2023-02-28T06:34:52;0.60;89.60
68433;DHT22;55412;51.350;17.056;2023-02-28T06:37:18;0.80;89.00
68433;DHT22;55412;51.350;17.056;2023-02-28T06:39:45;1.00;88.00
68433;DHT22;55412;51.350;17.056;2023-02-28T06:42:11;1.20;86.90
68433;DHT22;55412;51.350;17.056;2023-02-28T06:44:38;1.40;86.10
68433;DHT22;55412;51.350;17.056;2023-02-28T06:47:05;1.60;84.00
68433;DHT22;55412;51.350;17.056;2023-02-28T06:49:33;1.80;82.80
68433;DHT22;55412;51.350;17.056;2023-02-28T06:52:00;2.00;82.50
68433;DHT22;55412;51.350;17.056;2023-02-28T06:54:26;2.30;80.50
68433;DHT22;55412;51.350;17.056;2023-02-28T06:56:52;2.50;79.90
68433;DHT22;55412;51.350;17.056;2023-02-28T06:59:20;2.70;78.70
68433;DHT22;55412;51.350;17.056;2023-02-28T07:01:46;3.00;77.60
68433;DHT22;55412;51.350;17.056;2023-02-28T07:04:13;3.20;75.70
68433;DHT22;55412;51.350;17.056;2023-02-28T07:06:39;3.40;74.00
68433;DHT22;55412;51.350;17.056;2023-02-28T07:09:05;3.60;72.00
68433;DHT22;55412;51.350;17.056;2023-02-28T07:11:32;3.70;71.30
68433;DHT22;55412;51.350;17.056;2023-02-28T07:13:58;3.90;70.80
68433;DHT22;55412;51.350;17.056;2023-02-28T07:16:25;4.10;70.20
68433;DHT22;55412;51.350;17.056;2023-02-28T07:18:54;4.20;68.30
68433;DHT22;55412;51.350;17.056;2023-02-28T07:21:21;4.20;65.80
68433;DHT22;55412;51.350;17.056;2023-02-28T07:23:48;4.00;66.30
68433;DHT22;55412;51.350;17.056;2023-02-28T07:26:16;3.80;67.30
68433;DHT22;55412;51.350;17.056;2023-02-28T07:28:45;3.70;67.40
68433;DHT22;55412;51.350;17.056;2023-02-28T07:31:13;3.50;67.60
68433;DHT22;55412;51.350;17.056;2023-02-28T07:33:40;3.60;68.00
68433;DHT22;55412;51.350;17.056;2023-02-28T07:36:09;3.50;67.30
68433;DHT22;55412;51.350;17.056;2023-02-28T07:38:42;3.50;68.30
68433;DHT22;55412;51.350;17.056;2023-02-28T07:41:09;3.60;68.30
68433;DHT22;55412;51.350;17.056;2023-02-28T07:43:35;3.80;68.90
68433;DHT22;55412;51.350;17.056;2023-02-28T07:46:09;3.90;66.60
68433;DHT22;55412;51.350;17.056;2023-02-28T07:48:36;3.90;67.50
68433;DHT22;55412;51.350;17.056;2023-02-28T07:51:03;3.90;67.40
68433;DHT22;55412;51.350;17.056;2023-02-28T07:53:29;4.20;67.70
68433;DHT22;55412;51.350;17.056;2023-02-28T07:55:59;4.20;65.60
68433;DHT22;55412;51.350;17.056;2023-02-28T07:58:27;4.30;65.90
68433;DHT22;55412;51.350;17.056;2023-02-28T08:00:54;4.30;65.00
68433;DHT22;55412;51.350;17.056;2023-02-28T08:03:22;4.30;65.00
68433;DHT22;55412;51.350;17.056;2023-02-28T08:05:49;4.50;65.70
68433;DHT22;55412;51.350;17.056;2023-02-28T08:08:16;4.70;65.00
68433;DHT22;55412;51.350;17.056;2023-02-28T08:10:42;4.80;64.40
68433;DHT22;55412;51.350;17.056;2023-02-28T08:13:09;4.80;63.30
68433;DHT22;55412;51.350;17.056;2023-02-28T08:15:35;4.80;63.60
68433;DHT22;55412;51.350;17.056;2023-02-28T08:18:02;4.70;63.60
68433;DHT22;55412;51.350;17.056;2023-02-28T08:20:28;4.90;62.40
68433;DHT22;55412;51.350;17.056;2023-02-28T08:22:54;5.20;61.50
68433;DHT22;55412;51.350;17.056;2023-02-28T08:25:20;5.50;61.10
68433;DHT22;55412;51.350;17.056;2023-02-28T08:27:46;5.60;59.00
68433;DHT22;55412;51.350;17.056;2023-02-28T08:30:14;5.80;58.50
68433;DHT22;55412;51.350;17.056;2023-02-28T08:32:41;5.80;55.50
68433;DHT22;55412;51.350;17.056;2023-02-28T08:35:07;5.70;53.90
68433;DHT22;55412;51.350;17.056;2023-02-28T08:37:37;5.70;55.20
68433;DHT22;55412;51.350;17.056;2023-02-28T08:40:03;5.80;55.40
68433;DHT22;55412;51.350;17.056;2023-02-28T08:42:31;5.70;54.00
68433;DHT22;55412;51.350;17.056;2023-02-28T08:44:57;5.80;54.10
68433;DHT22;55412;51.350;17.056;2023-02-28T08:47:23;5.90;55.50
68433;DHT22;55412;51.350;17.056;2023-02-28T08:49:49;5.90;52.40
68433;DHT22;55412;51.350;17.056;2023-02-28T08:52:15;5.70;53.80
68433;DHT22;55412;51.350;17.056;2023-02-28T08:54:41;5.70;51.20
68433;DHT22;55412;51.350;17.056;2023-02-28T08:57:07;6.20;52.30
68433;DHT22;55412;51.350;17.056;2023-02-28T08:59:33;7.10;50.00
68433;DHT22;55412;51.350;17.056;2023-02-28T09:01:59;8.20;46.00
68433;DHT22;55412;51.350;17.056;2023-02-28T09:04:25;9.70;44.10
68433;DHT22;55412;51.350;17.056;2023-02-28T09:06:51;11.20;39.80
68433;DHT22;55412;51.350;17.056;2023-02-28T09:09:17;13.40;39.10
68433;DHT22;55412;51.350;17.056;2023-02-28T09:11:43;15.80;34.40
68433;DHT22;55412;51.350;17.056;2023-02-28T09:14:09;17.50;33.60
68433;DHT22;55412;51.350;17.056;2023-02-28T09:16:35;19.20;30.60
68433;DHT22;55412;51.350;17.056;2023-02-28T09:19:01;19.80;29.30
68433;DHT22;55412;51.350;17.056;2023-02-28T09:21:27;19.80;28.90
68433;DHT22;55412;51.350;17.056;2023-02-28T09:23:53;20.10;27.40
68433;DHT22;55412;51.350;17.056;2023-02-28T09:26:27;17.90;28.50
68433;DHT22;55412;51.350;17.056;2023-02-28T09:28:54;17.20;30.00
68433;DHT22;55412;51.350;17.056;2023-02-28T09:31:23;16.50;29.20
68433;DHT22;55412;51.350;17.056;2023-02-28T09:33:53;15.20;31.10
68433;DHT22;55412;51.350;17.056;2023-02-28T09:36:20;14.20;31.90
68433;DHT22;55412;51.350;17.056;2023-02-28T09:38:47;13.30;33.10
68433;DHT22;55412;51.350;17.056;2023-02-28T09:41:20;12.40;34.10
68433;DHT22;55412;51.350;17.056;2023-02-28T09:43:56;11.50;36.10
68433;DHT22;55412;51.350;17.056;2023-02-28T09:49:02;10.50;37.60
68433;DHT22;55412;51.350;17.056;2023-02-28T09:51:51;10.60;37.10
68433;DHT22;55412;51.350;17.056;2023-02-28T09:54:30;10.50;38.20
68433;DHT22;55412;51.350;17.056;2023-02-28T10:05:15;12.90;34.30
68433;DHT22;55412;51.350;17.056;2023-02-28T10:10:42;13.70;33.30
68433;DHT22;55412;51.350;17.056;2023-02-28T10:13:21;13.90;32.50
68433;DHT22;55412;51.350;17.056;2023-02-28T10:15:58;13.60;32.70
68433;DHT22;55412;51.350;17.056;2023-02-28T10:18:46;13.50;33.60
68433;DHT22;55412;51.350;17.056;2023-02-28T10:21:21;14.40;33.20
68433;DHT22;55412;51.350;17.056;2023-02-28T10:24:02;14.80;32.50
68433;DHT22;55412;51.350;17.056;2023-02-28T10:26:33;15.00;31.10
68433;DHT22;55412;51.350;17.056;2023-02-28T10:29:00;14.70;30.70
68433;DHT22;55412;51.350;17.056;2023-02-28T10:31:26;14.10;31.40
68433;DHT22;55412;51.350;17.056;2023-02-28T10:33:52;13.10;32.60
68433;DHT22;55412;51.350;17.056;2023-02-28T10:36:20;12.20;33.10
68433;DHT22;55412;51.350;17.056;2023-02-28T10:38:47;11.60;33.90
68433;DHT22;55412;51.350;17.056;2023-02-28T10:41:31;11.90;35.30
68433;DHT22;55412;51.350;17.056;2023-02-28T10:44:20;12.40;34.00
68433;DHT22;55412;51.350;17.056;2023-02-28T10:46:48;13.00;33.20
68433;DHT22;55412;51.350;17.056;2023-02-28T10:49:22;13.90;31.80
68433;DHT22;55412;51.350;17.056;2023-02-28T10:51:53;14.60;31.00
68433;DHT22;55412;51.350;17.056;2023-02-28T10:54:31;14.40;29.30
68433;DHT22;55412;51.350;17.056;2023-02-28T10:57:20;14.10;31.20
68433;DHT22;55412;51.350;17.056;2023-02-28T11:00:12;14.80;31.60
68433;DHT22;55412;51.350;17.056;2023-02-28T11:02:39;15.40;30.40
68433;DHT22;55412;51.350;17.056;2023-02-28T11:05:33;15.90;29.90
68433;DHT22;55412;51.350;17.056;2023-02-28T11:08:16;16.60;30.60
68433;DHT22;55412;51.350;17.056;2023-02-28T11:10:48;17.30;29.80
68433;DHT22;55412;51.350;17.056;2023-02-28T11:13:24;17.60;27.60
68433;DHT22;55412;51.350;17.056;2023-02-28T11:15:58;17.80;28.40
68433;DHT22;55412;51.350;17.056;2023-02-28T11:18:43;18.00;27.50
68433;DHT22;55412;51.350;17.056;2023-02-28T11:21:34;17.90;26.90
68433;DHT22;55412;51.350;17.056;2023-02-28T11:24:26;17.10;27.80
68433;DHT22;55412;51.350;17.056;2023-02-28T11:26:54;16.60;28.30
68433;DHT22;55412;51.350;17.056;2023-02-28T11:32:18;14.50;29.40
68433;DHT22;55412;51.350;17.056;2023-02-28T11:34:48;13.50;30.70
68433;DHT22;55412;51.350;17.056;2023-02-28T11:37:27;13.00;31.10
68433;DHT22;55412;51.350;17.056;2023-02-28T11:39:54;12.50;32.60
68433;DHT22;55412;51.350;17.056;2023-02-28T11:42:28;11.90;31.40
68433;DHT22;55412;51.350;17.056;2023-02-28T11:48:22;11.40;32.40
68433;DHT22;55412;51.350;17.056;2023-02-28T11:51:21;11.00;34.40
68433;DHT22;55412;51.350;17.056;2023-02-28T11:56:58;10.50;33.80
68433;DHT22;55412;51.350;17.056;2023-02-28T12:05:50;8.90;36.20
68433;DHT22;55412;51.350;17.056;2023-02-28T12:20:35;8.70;39.20
68433;DHT22;55412;51.350;17.056;2023-02-28T12:32:06;8.20;40.30
68433;DHT22;55412;51.350;17.056;2023-02-28T12:34:54;8.00;41.60
68433;DHT22;55412;51.350;17.056;2023-02-28T12:41:19;7.60;38.50
68433;DHT22;55412;51.350;17.056;2023-02-28T12:44:16;7.40;44.00
68433;DHT22;55412;51.350;17.056;2023-02-28T12:46:57;7.50;39.80
68433;DHT22;55412;51.350;17.056;2023-02-28T12:49:33;7.30;39.90
68433;DHT22;55412;51.350;17.056;2023-02-28T12:52:04;6.90;39.90
68433;DHT22;55412;51.350;17.056;2023-02-28T12:58:01;6.20;40.80
68433;DHT22;55412;51.350;17.056;2023-02-28T13:00:37;5.70;42.50
68433;DHT22;55412;51.350;17.056;2023-02-28T13:09:25;5.90;44.00
68433;DHT22;55412;51.350;17.056;2023-02-28T13:11:53;6.10;43.50
68433;DHT22;55412;51.350;17.056;2023-02-28T13:22:49;6.00;43.40
68433;DHT22;55412;51.350;17.056;2023-02-28T13:28:01;6.10;43.30
68433;DHT22;55412;51.350;17.056;2023-02-28T13:33:31;6.10;44.10
68433;DHT22;55412;51.350;17.056;2023-02-28T13:38:59;5.50;43.70
68433;DHT22;55412;51.350;17.056;2023-02-28T13:57:43;4.60;45.70
68433;DHT22;55412;51.350;17.056;2023-02-28T14:06:16;4.50;45.20
68433;DHT22;55412;51.350;17.056;2023-02-28T14:09:25;4.50;45.00
68433;DHT22;55412;51.350;17.056;2023-02-28T14:11:55;4.50;47.30
68433;DHT22;55412;51.350;17.056;2023-02-28T14:17:07;4.60;46.00
68433;DHT22;55412;51.350;17.056;2023-02-28T14:19:39;4.60;45.70
68433;DHT22;55412;51.350;17.056;2023-02-28T14:25:30;4.50;46.20
68433;DHT22;55412;51.350;17.056;2023-02-28T14:31:32;4.30;45.60
68433;DHT22;55412;51.350;17.056;2023-02-28T14:34:31;4.10;46.60
68433;DHT22;55412;51.350;17.056;2023-02-28T14:37:19;4.00;46.20
68433;DHT22;55412;51.350;17.056;2023-02-28T14:39:49;3.90;47.20
68433;DHT22;55412;51.350;17.056;2023-02-28T14:42:35;3.90;46.10
68433;DHT22;55412;51.350;17.056;2023-02-28T14:45:22;3.80;46.10
68433;DHT22;55412;51.350;17.056;2023-02-28T14:47:50;3.70;46.50
68433;DHT22;55412;51.350;17.056;2023-02-28T14:50:20;3.70;46.80
68433;DHT22;55412;51.350;17.056;2023-02-28T14:52:52;3.60;45.70
68433;DHT22;55412;51.350;17.056;2023-02-28T14:55:29;3.50;46.70
68433;DHT22;55412;51.350;17.056;2023-02-28T14:58:02;3.50;46.70
68433;DHT22;55412;51.350;17.056;2023-02-28T15:00:47;3.50;47.70
68433;DHT22;55412;51.350;17.056;2023-02-28T15:03:36;3.50;48.70
68433;DHT22;55412;51.350;17.056;2023-02-28T15:06:06;3.40;47.90
68433;DHT22;55412;51.350;17.056;2023-02-28T15:08:46;3.30;49.00
68433;DHT22;55412;51.350;17.056;2023-02-28T15:11:16;3.30;47.80
68433;DHT22;55412;51.350;17.056;2023-02-28T15:13:53;3.20;49.90
68433;DHT22;55412;51.350;17.056;2023-02-28T15:16:29;3.20;50.90
68433;DHT22;55412;51.350;17.056;2023-02-28T15:19:21;3.10;51.90
68433;DHT22;55412;51.350;17.056;2023-02-28T15:22:04;3.00;52.30
68433;DHT22;55412;51.350;17.056;2023-02-28T15:24:43;2.90;51.90
68433;DHT22;55412;51.350;17.056;2023-02-28T15:27:21;2.80;52.40
68433;DHT22;55412;51.350;17.056;2023-02-28T15:29:51;2.70;53.20
68433;DHT22;55412;51.350;17.056;2023-02-28T15:32:23;2.60;52.50
68433;DHT22;55412;51.350;17.056;2023-02-28T15:40:36;2.30;53.30
68433;DHT22;55412;51.350;17.056;2023-02-28T15:43:18;2.20;54.40
68433;DHT22;55412;51.350;17.056;2023-02-28T15:45:55;2.10;54.30
68433;DHT22;55412;51.350;17.056;2023-02-28T15:51:25;1.90;57.20
68433;DHT22;55412;51.350;17.056;2023-02-28T15:54:00;1.80;58.10
68433;DHT22;55412;51.350;17.056;2023-02-28T15:56:53;1.70;57.50
68433;DHT22;55412;51.350;17.056;2023-02-28T15:59:24;1.60;58.40
68433;DHT22;55412;51.350;17.056;2023-02-28T16:04:36;1.40;59.70
68433;DHT22;55412;51.350;17.056;2023-02-28T16:07:05;1.40;59.70
68433;DHT22;55412;51.350;17.056;2023-02-28T16:09:32;1.30;58.90
68433;DHT22;55412;51.350;17.056;2023-02-28T16:12:02;1.20;59.00
68433;DHT22;55412;51.350;17.056;2023-02-28T16:14:29;1.10;58.00
68433;DHT22;55412;51.350;17.056;2023-02-28T16:17:02;1.00;57.80
68433;DHT22;55412;51.350;17.056;2023-02-28T16:19:29;0.90;58.00
68433;DHT22;55412;51.350;17.056;2023-02-28T16:21:56;0.80;57.80
68433;DHT22;55412;51.350;17.056;2023-02-28T16:24:23;0.70;57.80
68433;DHT22;55412;51.350;17.056;2023-02-28T16:26:50;0.70;58.30
68433;DHT22;55412;51.350;17.056;2023-02-28T16:29:38;0.60;58.30
68433;DHT22;55412;51.350;17.056;2023-02-28T16:32:05;0.50;58.20
68433;DHT22;55412;51.350;17.056;2023-02-28T16:34:31;0.40;58.30
68433;DHT22;55412;51.350;17.056;2023-02-28T16:36:58;0.40;58.80
68433;DHT22;55412;51.350;17.056;2023-02-28T16:39:24;0.30;59.20
68433;DHT22;55412;51.350;17.056;2023-02-28T16:41:51;0.20;59.40
68433;DHT22;55412;51.350;17.056;2023-02-28T16:44:29;0.10;59.50
68433;DHT22;55412;51.350;17.056;2023-02-28T16:47:00;0.10;59.80
68433;DHT22;55412;51.350;17.056;2023-02-28T16:49:26;0.00;60.10
68433;DHT22;55412;51.350;17.056;2023-02-28T16:51:52;0.00;60.60
68433;DHT22;55412;51.350;17.056;2023-02-28T16:54:19;-0.10;60.70
68433;DHT22;55412;51.350;17.056;2023-02-28T16:56:47;-0.20;60.80
68433;DHT22;55412;51.350;17.056;2023-02-28T16:59:19;-0.20;61.10
68433;DHT22;55412;51.350;17.056;2023-02-28T17:01:48;-0.20;61.60
68433;DHT22;55412;51.350;17.056;2023-02-28T17:04:16;-0.30;62.20
68433;DHT22;55412;51.350;17.056;2023-02-28T17:06:43;-0.30;62.20
68433;DHT22;55412;51.350;17.056;2023-02-28T17:09:29;-0.40;62.00
68433;DHT22;55412;51.350;17.056;2023-02-28T17:11:55;-0.40;62.20
68433;DHT22;55412;51.350;17.056;2023-02-28T17:14:22;-0.50;63.00
68433;DHT22;55412;51.350;17.056;2023-02-28T17:16:49;-0.50;63.70
68433;DHT22;55412;51.350;17.056;2023-02-28T17:19:16;-0.50;64.20
68433;DHT22;55412;51.350;17.056;2023-02-28T17:21:43;-0.60;64.50
68433;DHT22;55412;51.350;17.056;2023-02-28T17:24:10;-0.60;65.30
68433;DHT22;55412;51.350;17.056;2023-02-28T17:26:41;-0.70;65.80
68433;DHT22;55412;51.350;17.056;2023-02-28T17:29:16;-0.80;66.10
68433;DHT22;55412;51.350;17.056;2023-02-28T17:31:43;-0.90;66.40
68433;DHT22;55412;51.350;17.056;2023-02-28T17:34:09;-1.00;67.70
68433;DHT22;55412;51.350;17.056;2023-02-28T17:36:36;-1.00;68.50
68433;DHT22;55412;51.350;17.056;2023-02-28T17:39:04;-1.00;68.40
68433;DHT22;55412;51.350;17.056;2023-02-28T17:41:34;-1.10;68.20
68433;DHT22;55412;51.350;17.056;2023-02-28T17:44:00;-1.10;68.20
68433;DHT22;55412;51.350;17.056;2023-02-28T17:46:26;-1.20;68.30
68433;DHT22;55412;51.350;17.056;2023-02-28T17:48:54;-1.30;68.30
68433;DHT22;55412;51.350;17.056;2023-02-28T17:51:22;-1.30;68.30
68433;DHT22;55412;51.350;17.056;2023-02-28T17:53:48;-1.30;68.60
68433;DHT22;55412;51.350;17.056;2023-02-28T17:56:20;-1.40;68.90
68433;DHT22;55412;51.350;17.056;2023-02-28T17:58:49;-1.50;69.30
68433;DHT22;55412;51.350;17.056;2023-02-28T18:01:17;-1.50;70.00
68433;DHT22;55412;51.350;17.056;2023-02-28T18:03:43;-1.60;70.30
68433;DHT22;55412;51.350;17.056;2023-02-28T18:06:24;-1.60;70.60
68433;DHT22;55412;51.350;17.056;2023-02-28T18:08:53;-1.70;71.40
68433;DHT22;55412;51.350;17.056;2023-02-28T18:11:21;-1.70;74.30
68433;DHT22;55412;51.350;17.056;2023-02-28T18:13:53;-1.70;77.20
68433;DHT22;55412;51.350;17.056;2023-02-28T18:16:23;-1.70;77.70
68433;DHT22;55412;51.350;17.056;2023-02-28T18:18:49;-1.80;78.10
68433;DHT22;55412;51.350;17.056;2023-02-28T18:21:16;-1.80;78.10
68433;DHT22;55412;51.350;17.056;2023-02-28T18:23:43;-1.90;77.60
68433;DHT22;55412;51.350;17.056;2023-02-28T18:26:16;-1.90;77.00
68433;DHT22;55412;51.350;17.056;2023-02-28T18:28:44;-1.90;76.40
68433;DHT22;55412;51.350;17.056;2023-02-28T18:31:18;-2.00;75.40
68433;DHT22;55412;51.350;17.056;2023-02-28T18:33:48;-2.00;75.00
68433;DHT22;55412;51.350;17.056;2023-02-28T18:36:15;-2.00;74.70